createdAt,value
2018-01-15T00:00:12.419Z,0
2018-01-15T00:01:12.875Z,0
2018-01-15T00:02:12.596Z,0
2018-01-15T00:03:12.580Z,0
2018-01-15T00:04:12.838Z,0
2018-01-15T00:05:12.257Z,0
2018-01-15T00:06:12.792Z,0
2018-01-15T00:07:12.780Z,0
2018-01-15T00:08:12.745Z,0
2018-01-15T00:09:12.179Z,0
2018-01-15T00:10:12.428Z,0
2018-01-15T00:11:12.156Z,0
2018-01-15T00:12:12.140Z,0
2018-01-15T00:13:12.106Z,0
2018-01-15T00:14:12.378Z,0
2018-01-15T00:15:12.338Z,0
2018-01-15T00:16:12.048Z,0
2018-01-15T00:17:12.318Z,0
2018-01-15T00:18:12.303Z,0
2018-01-15T00:19:11.991Z,0
2018-01-15T00:20:12.512Z,0
2018-01-15T00:21:12.492Z,0
2018-01-15T00:22:11.961Z,0
2018-01-15T00:23:12.195Z,0
2018-01-15T00:24:12.170Z,0
2018-01-15T00:25:12.423Z,0
2018-01-15T00:26:12.445Z,0
2018-01-15T00:27:12.110Z,0
2018-01-15T00:28:11.823Z,0
2018-01-15T00:29:11.822Z,0
2018-01-15T00:30:12.061Z,0
2018-01-15T00:31:12.051Z,0
2018-01-15T00:32:11.744Z,0
2018-01-15T00:33:11.997Z,0
2018-01-15T00:34:11.977Z,0
2018-01-15T00:35:11.687Z,0
2018-01-15T00:36:11.943Z,0
2018-01-15T00:37:11.941Z,0
2018-01-15T00:38:11.639Z,0
2018-01-15T00:39:12.151Z,0
2018-01-15T00:40:11.859Z,0
2018-01-15T00:41:11.571Z,0
2018-01-15T00:42:11.825Z,0
2018-01-15T00:43:12.090Z,0
2018-01-15T00:44:11.793Z,0
2018-01-15T00:45:11.768Z,0
2018-01-15T00:46:11.746Z,0
2018-01-15T00:47:11.456Z,0
2018-01-15T00:48:11.704Z,0
2018-01-15T00:49:11.417Z,0
2018-01-15T00:50:11.416Z,0
2018-01-15T00:51:11.921Z,0
2018-01-15T00:52:11.654Z,0
2018-01-15T00:53:11.608Z,0
2018-01-15T00:54:11.341Z,0
2018-01-15T00:55:11.581Z,0
2018-01-15T00:56:11.295Z,0
2018-01-15T00:57:11.804Z,0
2018-01-15T00:58:11.246Z,0
2018-01-15T00:59:11.493Z,0
2018-01-15T01:00:11.478Z,0
2018-01-15T01:01:11.465Z,0
2018-01-15T01:02:11.702Z,0
2018-01-15T01:03:11.712Z,0
2018-01-15T01:04:11.123Z,0
2018-01-15T01:05:11.650Z,0
2018-01-15T01:06:11.627Z,0
2018-01-15T01:07:11.607Z,0
2018-01-15T01:08:11.584Z,0
2018-01-15T01:09:11.065Z,0
2018-01-15T01:10:11.828Z,0
2018-01-15T01:11:11.283Z,0
2018-01-15T01:12:11.235Z,0
2018-01-15T01:13:10.960Z,0
2018-01-15T01:14:11.484Z,0
2018-01-15T01:15:11.176Z,0
2018-01-15T01:16:11.158Z,0
2018-01-15T01:17:11.160Z,0
2018-01-15T01:18:11.118Z,0
2018-01-15T01:19:10.833Z,0
2018-01-15T01:20:11.079Z,0
2018-01-15T01:21:11.261Z,0
2018-01-15T01:22:11.313Z,0
2018-01-15T01:23:10.750Z,0
2018-01-15T01:24:10.730Z,0
2018-01-15T01:25:11.250Z,0
2018-01-15T01:26:10.963Z,0
2018-01-15T01:27:11.221Z,0
2018-01-15T01:28:11.192Z,0
2018-01-15T01:29:10.912Z,0
2018-01-15T01:30:11.161Z,0
2018-01-15T01:31:10.865Z,0
2018-01-15T01:32:10.851Z,0
2018-01-15T01:33:10.572Z,0
2018-01-15T01:34:10.814Z,0
2018-01-15T01:35:10.784Z,0
2018-01-15T01:36:10.772Z,0
2018-01-15T01:37:10.474Z,0
2018-01-15T01:38:10.790Z,0
2018-01-15T01:39:10.477Z,0
2018-01-15T01:40:10.699Z,0
2018-01-15T01:41:10.422Z,0
2018-01-15T01:42:10.657Z,0
2018-01-15T01:43:10.623Z,0
2018-01-15T01:44:10.616Z,0
2018-01-15T01:45:10.600Z,0
2018-01-15T01:46:10.569Z,0
2018-01-15T01:47:10.544Z,0
2018-01-15T01:48:10.257Z,0
2018-01-15T01:49:10.777Z,0
2018-01-15T01:50:10.501Z,0
2018-01-15T01:51:11.014Z,0
2018-01-15T01:52:10.720Z,0
2018-01-15T01:53:10.423Z,0
2018-01-15T01:54:10.164Z,0
2018-01-15T01:55:10.116Z,0
2018-01-15T01:56:10.366Z,0
2018-01-15T01:57:10.077Z,0
2018-01-15T01:58:10.618Z,0
2018-01-15T01:59:10.616Z,0
2018-01-15T02:00:10.291Z,0
2018-01-15T02:01:10.567Z,0
2018-01-15T02:02:10.008Z,0
2018-01-15T02:03:09.956Z,0
2018-01-15T02:04:10.215Z,0
2018-01-15T02:05:10.191Z,0
2018-01-15T02:06:10.178Z,0
2018-01-15T02:07:10.717Z,0
2018-01-15T02:08:10.397Z,0
2018-01-15T02:09:10.106Z,0
2018-01-15T02:10:10.358Z,0
2018-01-15T02:11:09.797Z,0
2018-01-15T02:12:10.057Z,0
2018-01-15T02:13:10.028Z,0
2018-01-15T02:14:10.276Z,0
2018-01-15T02:15:09.990Z,0
2018-01-15T02:16:09.975Z,0
2018-01-15T02:17:09.676Z,0
2018-01-15T02:18:09.926Z,0
2018-01-15T02:19:09.969Z,0
2018-01-15T02:20:09.888Z,0
2018-01-15T02:21:09.870Z,0
2018-01-15T02:22:09.597Z,0
2018-01-15T02:23:09.568Z,0
2018-01-15T02:24:09.808Z,0
2018-01-15T02:25:09.516Z,0
2018-01-15T02:26:09.766Z,0
2018-01-15T02:27:09.751Z,0
2018-01-15T02:28:09.733Z,0
2018-01-15T02:29:09.707Z,0
2018-01-15T02:30:09.417Z,0
2018-01-15T02:31:09.399Z,0
2018-01-15T02:32:09.930Z,0
2018-01-15T02:33:09.637Z,0
2018-01-15T02:34:09.899Z,0
2018-01-15T02:35:09.863Z,0
2018-01-15T02:36:09.587Z,0
2018-01-15T02:37:09.553Z,0
2018-01-15T02:38:09.258Z,0
2018-01-15T02:39:09.519Z,0
2018-01-15T02:40:09.489Z,0
2018-01-15T02:41:09.747Z,0
2018-01-15T02:42:09.180Z,0
2018-01-15T02:43:09.429Z,0
2018-01-15T02:44:09.408Z,0
2018-01-15T02:45:09.687Z,0
2018-01-15T02:46:09.639Z,0
2018-01-15T02:47:09.348Z,0
2018-01-15T02:48:09.077Z,0
2018-01-15T02:49:09.303Z,0
2018-01-15T02:50:09.833Z,0
2018-01-15T02:51:09.289Z,0
2018-01-15T02:52:09.254Z,0
2018-01-15T02:53:09.226Z,0
2018-01-15T02:54:08.940Z,0
2018-01-15T02:55:09.459Z,0
2018-01-15T02:56:09.169Z,0
2018-01-15T02:57:09.428Z,0
2018-01-15T02:58:09.125Z,0
2018-01-15T02:59:09.113Z,0
2018-01-15T03:00:09.083Z,0
2018-01-15T03:01:08.798Z,0
2018-01-15T03:02:08.778Z,0
2018-01-15T03:03:09.309Z,0
2018-01-15T03:04:09.008Z,0
2018-01-15T03:05:08.989Z,0
2018-01-15T03:06:08.698Z,0
2018-01-15T03:07:08.681Z,0
2018-01-15T03:08:08.965Z,0
2018-01-15T03:09:09.179Z,0
2018-01-15T03:10:08.887Z,0
2018-01-15T03:11:08.604Z,0
2018-01-15T03:12:08.849Z,0
2018-01-15T03:13:09.414Z,0
2018-01-15T03:14:08.825Z,0
2018-01-15T03:15:08.517Z,0
2018-01-15T03:16:08.506Z,0
2018-01-15T03:17:08.753Z,0
2018-01-15T03:18:08.726Z,0
2018-01-15T03:19:08.707Z,0
2018-01-15T03:20:08.689Z,0
2018-01-15T03:21:08.939Z,0
2018-01-15T03:22:08.377Z,0
2018-01-15T03:23:09.181Z,0
2018-01-15T03:24:08.605Z,0
2018-01-15T03:25:08.599Z,0
2018-01-15T03:26:08.877Z,0
2018-01-15T03:27:08.561Z,0
2018-01-15T03:28:08.259Z,0
2018-01-15T03:29:08.258Z,0
2018-01-15T03:30:08.490Z,0
2018-01-15T03:31:09.350Z,0
2018-01-15T03:32:08.453Z,0
2018-01-15T03:33:08.705Z,0
2018-01-15T03:34:08.153Z,0
2018-01-15T03:35:08.119Z,0
2018-01-15T03:36:08.372Z,0
2018-01-15T03:37:08.619Z,0
2018-01-15T03:38:08.619Z,0
2018-01-15T03:39:08.576Z,0
2018-01-15T03:40:08.286Z,0
2018-01-15T03:41:08.297Z,0
2018-01-15T03:42:08.250Z,0
2018-01-15T03:43:07.959Z,0
2018-01-15T03:44:08.488Z,0
2018-01-15T03:45:08.185Z,0
2018-01-15T03:46:08.167Z,0
2018-01-15T03:47:08.416Z,0
2018-01-15T03:48:07.862Z,0
2018-01-15T03:49:08.117Z,0
2018-01-15T03:50:07.819Z,0
2018-01-15T03:51:08.066Z,0
2018-01-15T03:52:08.046Z,0
2018-01-15T03:53:07.811Z,0
2018-01-15T03:54:08.023Z,0
2018-01-15T03:55:08.254Z,0
2018-01-15T03:56:08.514Z,0
2018-01-15T03:57:08.223Z,0
2018-01-15T03:58:08.199Z,0
2018-01-15T03:59:08.187Z,0
2018-01-15T04:00:07.906Z,0
2018-01-15T04:01:07.595Z,0
2018-01-15T04:02:08.360Z,0
2018-01-15T04:03:07.863Z,0
2018-01-15T04:04:07.875Z,0
2018-01-15T04:05:08.083Z,0
2018-01-15T04:06:07.793Z,0
2018-01-15T04:07:08.016Z,0
2018-01-15T04:08:07.999Z,0
2018-01-15T04:09:07.705Z,0
2018-01-15T04:10:07.691Z,0
2018-01-15T04:11:07.937Z,0
2018-01-15T04:12:07.390Z,0
2018-01-15T04:13:07.354Z,0
2018-01-15T04:14:07.882Z,0
2018-01-15T04:15:07.590Z,0
2018-01-15T04:16:07.952Z,0
2018-01-15T04:17:07.605Z,0
2018-01-15T04:18:07.524Z,0
2018-01-15T04:19:07.779Z,0
2018-01-15T04:20:07.786Z,0
2018-01-15T04:21:07.466Z,0
2018-01-15T04:22:07.715Z,0
2018-01-15T04:23:07.437Z,0
2018-01-15T04:24:07.406Z,0
2018-01-15T04:25:07.390Z,0
2018-01-15T04:26:07.393Z,0
2018-01-15T04:27:07.613Z,0
2018-01-15T04:28:07.053Z,0
2018-01-15T04:29:07.608Z,0
2018-01-15T04:30:07.285Z,0
2018-01-15T04:31:07.272Z,0
2018-01-15T04:32:07.261Z,0
2018-01-15T04:33:06.953Z,0
2018-01-15T04:34:07.241Z,0
2018-01-15T04:35:07.183Z,0
2018-01-15T04:36:07.096Z,0
2018-01-15T04:37:07.151Z,0
2018-01-15T04:38:07.679Z,0
2018-01-15T04:39:07.125Z,0
2018-01-15T04:40:06.813Z,0
2018-01-15T04:41:07.080Z,0
2018-01-15T04:42:07.061Z,0
2018-01-15T04:43:06.806Z,0
2018-01-15T04:44:06.739Z,0
2018-01-15T04:45:07.000Z,0
2018-01-15T04:46:06.693Z,0
2018-01-15T04:47:06.683Z,0
2018-01-15T04:48:06.656Z,0
2018-01-15T04:49:07.446Z,0
2018-01-15T04:50:06.615Z,0
2018-01-15T04:51:06.592Z,0
2018-01-15T04:52:07.111Z,0
2018-01-15T04:53:06.823Z,0
2018-01-15T04:54:06.800Z,0
2018-01-15T04:55:07.322Z,0
2018-01-15T04:56:06.769Z,0
2018-01-15T04:57:06.770Z,0
2018-01-15T04:58:06.734Z,0
2018-01-15T04:59:07.249Z,0
2018-01-15T05:00:06.682Z,0
2018-01-15T05:01:06.399Z,0
2018-01-15T05:02:06.918Z,0
2018-01-15T05:03:06.907Z,0
2018-01-15T05:04:06.617Z,0
2018-01-15T05:05:06.581Z,0
2018-01-15T05:06:06.561Z,0
2018-01-15T05:07:06.618Z,0
2018-01-15T05:08:06.810Z,0
2018-01-15T05:09:06.501Z,0
2018-01-15T05:10:06.753Z,0
2018-01-15T05:11:06.458Z,0
2018-01-15T05:12:06.710Z,0
2018-01-15T05:13:06.441Z,0
2018-01-15T05:14:06.130Z,0
2018-01-15T05:15:06.389Z,0
2018-01-15T05:16:06.361Z,0
2018-01-15T05:17:06.084Z,0
2018-01-15T05:18:06.322Z,0
2018-01-15T05:19:06.572Z,0
2018-01-15T05:20:06.281Z,0
2018-01-15T05:21:05.991Z,0
2018-01-15T05:22:06.237Z,0
2018-01-15T05:23:05.955Z,0
2018-01-15T05:24:06.203Z,0
2018-01-15T05:25:06.183Z,0
2018-01-15T05:26:05.902Z,0
2018-01-15T05:27:06.138Z,0
2018-01-15T05:28:05.848Z,0
2018-01-15T05:29:06.126Z,0
2018-01-15T05:30:06.090Z,0
2018-01-15T05:31:05.789Z,0
2018-01-15T05:32:05.784Z,0
2018-01-15T05:33:06.563Z,0
2018-01-15T05:34:06.000Z,0
2018-01-15T05:35:06.002Z,0
2018-01-15T05:36:05.975Z,0
2018-01-15T05:37:05.669Z,0
2018-01-15T05:38:05.920Z,0
2018-01-15T05:39:06.168Z,0
2018-01-15T05:40:05.902Z,0
2018-01-15T05:41:05.880Z,0
2018-01-15T05:42:05.603Z,0
2018-01-15T05:43:05.550Z,0
2018-01-15T05:44:05.799Z,0
2018-01-15T05:45:05.779Z,0
2018-01-15T05:46:05.514Z,0
2018-01-15T05:47:06.008Z,0
2018-01-15T05:48:05.741Z,0
2018-01-15T05:49:05.431Z,0
2018-01-15T05:50:05.428Z,0
2018-01-15T05:51:05.398Z,0
2018-01-15T05:52:05.654Z,0
2018-01-15T05:53:05.616Z,0
2018-01-15T05:54:05.345Z,0
2018-01-15T05:55:05.848Z,0
2018-01-15T05:56:05.591Z,0
2018-01-15T05:57:05.536Z,0
2018-01-15T05:58:05.249Z,0
2018-01-15T05:59:05.243Z,0
2018-01-15T06:00:05.766Z,0
2018-01-15T06:01:05.756Z,0
2018-01-15T06:02:05.730Z,0
2018-01-15T06:03:05.169Z,0
2018-01-15T06:04:05.436Z,0
2018-01-15T06:05:05.382Z,0
2018-01-15T06:06:05.088Z,0
2018-01-15T06:07:05.342Z,0
2018-01-15T06:08:05.325Z,0
2018-01-15T06:09:05.307Z,0
2018-01-15T06:10:05.828Z,0
2018-01-15T06:11:05.261Z,0
2018-01-15T06:12:05.528Z,0
2018-01-15T06:13:05.236Z,0
2018-01-15T06:14:05.782Z,0
2018-01-15T06:15:05.459Z,0
2018-01-15T06:16:05.431Z,0
2018-01-15T06:17:05.156Z,0
2018-01-15T06:18:05.124Z,0
2018-01-15T06:19:05.425Z,0
2018-01-15T06:20:04.814Z,0
2018-01-15T06:21:05.073Z,0
2018-01-15T06:22:05.044Z,0
2018-01-15T06:23:05.024Z,0
2018-01-15T06:24:05.280Z,0
2018-01-15T06:25:04.984Z,0
2018-01-15T06:26:04.980Z,0
2018-01-15T06:27:04.692Z,0
2018-01-15T06:28:05.219Z,0
2018-01-15T06:29:05.180Z,0
2018-01-15T06:30:04.621Z,0
2018-01-15T06:31:04.597Z,0
2018-01-15T06:32:04.595Z,0
2018-01-15T06:33:05.099Z,4
2018-01-15T06:34:05.088Z,4
2018-01-15T06:35:04.518Z,0
2018-01-15T06:36:04.781Z,0
2018-01-15T06:37:04.751Z,4
2018-01-15T06:38:04.745Z,4
2018-01-15T06:39:04.729Z,4
2018-01-15T06:40:04.974Z,4
2018-01-15T06:41:04.402Z,4
2018-01-15T06:42:04.672Z,4
2018-01-15T06:43:04.642Z,8
2018-01-15T06:44:04.614Z,4
2018-01-15T06:45:04.887Z,8
2018-01-15T06:46:04.582Z,8
2018-01-15T06:47:04.859Z,12
2018-01-15T06:48:07.819Z,12
2018-01-15T06:49:04.519Z,16
2018-01-15T06:50:05.041Z,20
2018-01-15T06:51:04.477Z,24
2018-01-15T06:52:04.458Z,32
2018-01-15T06:53:04.709Z,36
2018-01-15T06:54:04.788Z,40
2018-01-15T06:55:04.130Z,40
2018-01-15T06:56:04.381Z,52
2018-01-15T06:57:04.363Z,60
2018-01-15T06:58:04.075Z,68
2018-01-15T06:59:04.055Z,76
2018-01-15T07:00:04.640Z,88
2018-01-15T07:01:04.571Z,96
2018-01-15T07:02:04.468Z,108
2018-01-15T07:03:04.247Z,116
2018-01-15T07:04:04.227Z,120
2018-01-15T07:05:04.211Z,132
2018-01-15T07:06:04.478Z,144
2018-01-15T07:07:04.438Z,156
2018-01-15T07:08:04.701Z,164
2018-01-15T07:09:04.134Z,184
2018-01-15T07:10:04.242Z,204
2018-01-15T07:11:04.367Z,236
2018-01-15T07:12:04.340Z,248
2018-01-15T07:13:04.053Z,268
2018-01-15T07:14:03.798Z,284
2018-01-15T07:15:03.742Z,304
2018-01-15T07:16:04.017Z,324
2018-01-15T07:17:04.715Z,328
2018-01-15T07:18:03.774Z,344
2018-01-15T07:19:04.038Z,344
2018-01-15T07:20:04.268Z,372
2018-01-15T07:21:03.913Z,372
2018-01-15T07:22:03.945Z,404
2018-01-15T07:23:04.211Z,416
2018-01-15T07:24:03.840Z,420
2018-01-15T07:25:04.094Z,408
2018-01-15T07:26:03.575Z,444
2018-01-15T07:27:03.510Z,452
2018-01-15T07:28:04.038Z,480
2018-01-15T07:29:03.488Z,520
2018-01-15T07:30:04.071Z,576
2018-01-15T07:31:03.433Z,688
2018-01-15T07:32:04.228Z,692
2018-01-15T07:33:03.676Z,780
2018-01-15T07:34:03.915Z,800
2018-01-15T07:35:03.364Z,764
2018-01-15T07:36:03.893Z,768
2018-01-15T07:37:03.590Z,860
2018-01-15T07:38:03.298Z,924
2018-01-15T07:39:03.834Z,1000
2018-01-15T07:40:03.798Z,1076
2018-01-15T07:41:04.072Z,1112
2018-01-15T07:42:03.237Z,1196
2018-01-15T07:43:03.470Z,1172
2018-01-15T07:44:03.455Z,1236
2018-01-15T07:45:03.159Z,1224
2018-01-15T07:46:03.688Z,1396
2018-01-15T07:47:03.390Z,1260
2018-01-15T07:48:03.920Z,1364
2018-01-15T07:49:03.358Z,1520
2018-01-15T07:50:03.080Z,1552
2018-01-15T07:51:03.319Z,1428
2018-01-15T07:52:03.322Z,1508
2018-01-15T07:53:03.561Z,1512
2018-01-15T07:54:03.268Z,1720
2018-01-15T07:55:03.238Z,1544
2018-01-15T07:56:03.499Z,1484
2018-01-15T07:57:03.196Z,1780
2018-01-15T07:58:03.182Z,1552
2018-01-15T07:59:03.236Z,1564
2018-01-15T08:00:02.870Z,1432
2018-01-15T08:01:03.398Z,1332
2018-01-15T08:02:03.114Z,1412
2018-01-15T08:03:03.621Z,1360
2018-01-15T08:04:03.082Z,1392
2018-01-15T08:05:03.602Z,1344
2018-01-15T08:06:03.304Z,1372
2018-01-15T08:07:03.028Z,1364
2018-01-15T08:08:02.990Z,1400
2018-01-15T08:09:03.272Z,1408
2018-01-15T08:10:02.699Z,1464
2018-01-15T08:11:03.198Z,1468
2018-01-15T08:12:02.911Z,1440
2018-01-15T08:13:03.450Z,1452
2018-01-15T08:14:02.601Z,1452
2018-01-15T08:15:02.579Z,1476
2018-01-15T08:16:03.121Z,1476
2018-01-15T08:17:02.548Z,1492
2018-01-15T08:18:03.064Z,1516
2018-01-15T08:19:02.505Z,1524
2018-01-15T08:20:03.299Z,1540
2018-01-15T08:21:02.469Z,1548
2018-01-15T08:22:02.488Z,1552
2018-01-15T08:23:02.428Z,1572
2018-01-15T08:24:02.405Z,1580
2018-01-15T08:25:02.387Z,1596
2018-01-15T08:26:02.912Z,1592
2018-01-15T08:27:02.348Z,1596
2018-01-15T08:28:02.329Z,1596
2018-01-15T08:29:02.619Z,1624
2018-01-15T08:30:02.581Z,1632
2018-01-15T08:31:02.270Z,1648
2018-01-15T08:32:02.248Z,1656
2018-01-15T08:33:02.563Z,1668
2018-01-15T08:34:02.539Z,1668
2018-01-15T08:35:02.196Z,1672
2018-01-15T08:36:02.447Z,1684
2018-01-15T08:37:02.169Z,1700
2018-01-15T08:38:02.409Z,1708
2018-01-15T08:39:02.384Z,1704
2018-01-15T08:40:02.948Z,1716
2018-01-15T08:41:02.346Z,1736
2018-01-15T08:42:02.198Z,1740
2018-01-15T08:43:02.850Z,1744
2018-01-15T08:44:02.286Z,1736
2018-01-15T08:45:02.270Z,1764
2018-01-15T08:46:02.574Z,1764
2018-01-15T08:47:02.374Z,1776
2018-01-15T08:48:02.216Z,1764
2018-01-15T08:49:02.468Z,1768
2018-01-15T08:50:02.734Z,1780
2018-01-15T08:51:02.153Z,1784
2018-01-15T08:52:01.870Z,1800
2018-01-15T08:53:02.694Z,1796
2018-01-15T08:54:02.357Z,1808
2018-01-15T08:55:01.854Z,1812
2018-01-15T08:56:02.053Z,1816
2018-01-15T08:57:02.383Z,1812
2018-01-15T08:58:02.294Z,1816
2018-01-15T08:59:01.996Z,1836
2018-01-15T09:00:02.001Z,1856
2018-01-15T09:01:02.017Z,1860
2018-01-15T09:02:01.663Z,1860
2018-01-15T09:03:01.794Z,1856
2018-01-15T09:04:01.627Z,1860
2018-01-15T09:05:01.917Z,1876
2018-01-15T09:06:01.605Z,1884
2018-01-15T09:07:01.851Z,1888
2018-01-15T09:08:01.820Z,1892
2018-01-15T09:09:01.529Z,1900
2018-01-15T09:10:02.053Z,1912
2018-01-15T09:11:01.510Z,1908
2018-01-15T09:12:01.760Z,1912
2018-01-15T09:13:01.751Z,1908
2018-01-15T09:14:01.700Z,1908
2018-01-15T09:15:01.708Z,1912
2018-01-15T09:16:02.175Z,1920
2018-01-15T09:17:02.298Z,1932
2018-01-15T09:18:01.622Z,1936
2018-01-15T09:19:01.657Z,1936
2018-01-15T09:20:01.857Z,1936
2018-01-15T09:21:01.293Z,1932
2018-01-15T09:22:01.546Z,1940
2018-01-15T09:23:01.807Z,1948
2018-01-15T09:24:01.258Z,1940
2018-01-15T09:25:01.489Z,1952
2018-01-15T09:26:01.200Z,1960
2018-01-15T09:27:01.448Z,1964
2018-01-15T09:28:01.164Z,1968
2018-01-15T09:29:01.707Z,1968
2018-01-15T09:30:01.405Z,1968
2018-01-15T09:31:01.375Z,1972
2018-01-15T09:32:01.356Z,1968
2018-01-15T09:33:01.623Z,1964
2018-01-15T09:34:01.324Z,1968
2018-01-15T09:35:01.328Z,1976
2018-01-15T09:36:01.276Z,1980
2018-01-15T09:37:01.549Z,1984
2018-01-15T09:38:01.295Z,1980
2018-01-15T09:39:01.220Z,1984
2018-01-15T09:40:01.203Z,1988
2018-01-15T09:41:01.182Z,1988
2018-01-15T09:42:01.430Z,1992
2018-01-15T09:43:01.140Z,1992
2018-01-15T09:44:00.850Z,1996
2018-01-15T09:45:01.214Z,1992
2018-01-15T09:46:00.813Z,1992
2018-01-15T09:47:00.806Z,1996
2018-01-15T09:48:01.049Z,1988
2018-01-15T09:49:00.774Z,1996
2018-01-15T09:50:01.012Z,1992
2018-01-15T09:51:00.989Z,1992
2018-01-15T09:52:00.973Z,1992
2018-01-15T09:53:00.984Z,1992
2018-01-15T09:54:00.950Z,1984
2018-01-15T09:55:00.639Z,1992
2018-01-15T09:56:00.897Z,1992
2018-01-15T09:57:01.155Z,2000
2018-01-15T09:58:00.854Z,2000
2018-01-15T09:59:01.124Z,2000
2018-01-15T10:00:01.150Z,2004
2018-01-15T10:01:00.860Z,1996
2018-01-15T10:02:00.839Z,1996
2018-01-15T10:03:01.047Z,1992
2018-01-15T10:04:00.790Z,1996
2018-01-15T10:05:00.729Z,2004
2018-01-15T10:06:00.786Z,2008
2018-01-15T10:07:00.691Z,2008
2018-01-15T10:08:00.390Z,2000
2018-01-15T10:09:00.378Z,2000
2018-01-15T10:10:01.010Z,2004
2018-01-15T10:11:00.354Z,2008
2018-01-15T10:12:00.590Z,2008
2018-01-15T10:13:00.324Z,2012
2018-01-15T10:14:00.547Z,2004
2018-01-15T10:15:00.529Z,2016
2018-01-15T10:16:00.247Z,2020
2018-01-15T10:17:00.956Z,2024
2018-01-15T10:18:00.576Z,2028
2018-01-15T10:19:00.190Z,2028
2018-01-15T10:20:00.431Z,2040
2018-01-15T10:21:00.707Z,2044
2018-01-15T10:22:00.396Z,2044
2018-01-15T10:23:00.703Z,2044
2018-01-15T10:24:00.625Z,2060
2018-01-15T10:25:00.337Z,2068
2018-01-15T10:26:00.326Z,2076
2018-01-15T10:27:00.298Z,2088
2018-01-15T10:28:00.556Z,2104
2018-01-15T10:29:00.525Z,2096
2018-01-15T10:29:59.971Z,2108
2018-01-15T10:30:59.951Z,2108
2018-01-15T10:32:00.206Z,2108
2018-01-15T10:32:59.917Z,2112
2018-01-15T10:34:00.173Z,2108
2018-01-15T10:35:00.421Z,2116
2018-01-15T10:36:00.416Z,2124
2018-01-15T10:37:00.105Z,2128
2018-01-15T10:38:00.100Z,2120
2018-01-15T10:39:00.339Z,2124
2018-01-15T10:40:00.062Z,2128
2018-01-15T10:41:00.042Z,2128
2018-01-15T10:42:00.054Z,2132
2018-01-15T10:42:59.731Z,2132
2018-01-15T10:43:59.979Z,2120
2018-01-15T10:45:00.241Z,2120
2018-01-15T10:45:59.950Z,2116
2018-01-15T10:46:59.972Z,2112
2018-01-15T10:48:00.170Z,2104
2018-01-15T10:48:59.882Z,2104
2018-01-15T10:49:59.593Z,2108
2018-01-15T10:50:59.857Z,2104
2018-01-15T10:51:59.840Z,2108
2018-01-15T10:52:59.558Z,2108
2018-01-15T10:53:59.790Z,2108
2018-01-15T10:54:59.774Z,2116
2018-01-15T10:56:00.038Z,2108
2018-01-15T10:56:59.461Z,2112
2018-01-15T10:57:59.718Z,2112
2018-01-15T10:58:59.723Z,2112
2018-01-15T10:59:59.408Z,2108
2018-01-15T11:00:59.927Z,2104
2018-01-15T11:01:59.365Z,2104
2018-01-15T11:02:59.908Z,2096
2018-01-15T11:03:59.887Z,2088
2018-01-15T11:04:59.581Z,2092
2018-01-15T11:05:59.834Z,2096
2018-01-15T11:06:59.576Z,2088
2018-01-15T11:07:59.267Z,2088
2018-01-15T11:08:59.236Z,2092
2018-01-15T11:09:59.220Z,2092
2018-01-15T11:10:59.489Z,2092
2018-01-15T11:11:59.453Z,2092
2018-01-15T11:12:59.457Z,2096
2018-01-15T11:13:59.411Z,2092
2018-01-15T11:14:59.404Z,2092
2018-01-15T11:15:59.402Z,2096
2018-01-15T11:16:59.382Z,2096
2018-01-15T11:17:59.099Z,2100
2018-01-15T11:18:59.344Z,2096
2018-01-15T11:19:59.032Z,2104
2018-01-15T11:20:59.576Z,2104
2018-01-15T11:21:59.268Z,2108
2018-01-15T11:22:59.052Z,2108
2018-01-15T11:23:59.230Z,2108
2018-01-15T11:24:59.212Z,2104
2018-01-15T11:25:59.504Z,2116
2018-01-15T11:26:59.222Z,2108
2018-01-15T11:27:59.007Z,2116
2018-01-15T11:28:59.141Z,2124
2018-01-15T11:29:59.120Z,2124
2018-01-15T11:30:58.832Z,2136
2018-01-15T11:31:59.084Z,2128
2018-01-15T11:32:58.798Z,2128
2018-01-15T11:33:58.777Z,2120
2018-01-15T11:34:59.040Z,2124
2018-01-15T11:35:58.756Z,2124
2018-01-15T11:36:59.001Z,2124
2018-01-15T11:37:58.744Z,2120
2018-01-15T11:38:58.692Z,2128
2018-01-15T11:39:58.678Z,2124
2018-01-15T11:40:59.206Z,2128
2018-01-15T11:41:58.908Z,2120
2018-01-15T11:42:58.894Z,2120
2018-01-15T11:43:58.602Z,2124
2018-01-15T11:44:58.586Z,2120
2018-01-15T11:45:58.566Z,2124
2018-01-15T11:46:59.104Z,2120
2018-01-15T11:47:58.547Z,2116
2018-01-15T11:48:58.513Z,2108
2018-01-15T11:49:58.513Z,2108
2018-01-15T11:50:59.323Z,2104
2018-01-15T11:51:59.286Z,2104
2018-01-15T11:52:58.985Z,2096
2018-01-15T11:53:58.696Z,2092
2018-01-15T11:54:58.675Z,2092
2018-01-15T11:55:58.655Z,2100
2018-01-15T11:56:58.364Z,2096
2018-01-15T11:57:58.624Z,2096
2018-01-15T11:58:58.603Z,2092
2018-01-15T11:59:58.322Z,2092
2018-01-15T12:00:58.573Z,2096
2018-01-15T12:01:58.547Z,2088
2018-01-15T12:02:58.807Z,2088
2018-01-15T12:03:58.514Z,2088
2018-01-15T12:04:58.517Z,2088
2018-01-15T12:05:58.476Z,2084
2018-01-15T12:06:58.459Z,2088
2018-01-15T12:07:58.457Z,2084
2018-01-15T12:08:59.002Z,2088
2018-01-15T12:09:58.412Z,2084
2018-01-15T12:10:58.116Z,2084
2018-01-15T12:11:58.368Z,2084
2018-01-15T12:12:58.081Z,2084
2018-01-15T12:13:58.345Z,2080
2018-01-15T12:14:58.343Z,2080
2018-01-15T12:15:58.043Z,2080
2018-01-15T12:16:58.300Z,2080
2018-01-15T12:17:58.270Z,2084
2018-01-15T12:18:58.798Z,2080
2018-01-15T12:19:58.801Z,2076
2018-01-15T12:20:58.481Z,2076
2018-01-15T12:21:58.205Z,2072
2018-01-15T12:22:58.468Z,2060
2018-01-15T12:23:58.158Z,2076
2018-01-15T12:24:58.445Z,2072
2018-01-15T12:25:58.134Z,2068
2018-01-15T12:26:58.123Z,2064
2018-01-15T12:27:57.811Z,2068
2018-01-15T12:28:57.791Z,2068
2018-01-15T12:29:58.374Z,2068
2018-01-15T12:30:58.302Z,2056
2018-01-15T12:31:58.285Z,2060
2018-01-15T12:32:58.007Z,2020
2018-01-15T12:33:57.980Z,2144
2018-01-15T12:34:58.505Z,2496
2018-01-15T12:35:58.303Z,2728
2018-01-15T12:36:58.201Z,2936
2018-01-15T12:37:57.657Z,3756
2018-01-15T12:38:58.159Z,3508
2018-01-15T12:39:57.888Z,3760
2018-01-15T12:40:58.119Z,3488
2018-01-15T12:41:57.560Z,3108
2018-01-15T12:42:58.093Z,3124
2018-01-15T12:43:57.809Z,3116
2018-01-15T12:44:57.788Z,3220
2018-01-15T12:45:58.062Z,3388
2018-01-15T12:46:57.742Z,3444
2018-01-15T12:47:57.727Z,3720
2018-01-15T12:48:57.977Z,3696
2018-01-15T12:49:57.436Z,3664
2018-01-15T12:50:57.678Z,3780
2018-01-15T12:51:57.384Z,3784
2018-01-15T12:52:57.365Z,3936
2018-01-15T12:53:57.621Z,3892
2018-01-15T12:54:57.335Z,3616
2018-01-15T12:55:57.586Z,3428
2018-01-15T12:56:57.584Z,3836
2018-01-15T12:57:57.287Z,3960
2018-01-15T12:58:57.536Z,3736
2018-01-15T12:59:57.511Z,3044
2018-01-15T13:00:57.790Z,2568
2018-01-15T13:01:57.501Z,2352
2018-01-15T13:02:57.464Z,2132
2018-01-15T13:03:57.447Z,2012
2018-01-15T13:04:57.176Z,1984
2018-01-15T13:05:57.175Z,1872
2018-01-15T13:06:57.667Z,1864
2018-01-15T13:07:57.391Z,1796
2018-01-15T13:08:57.369Z,1788
2018-01-15T13:09:57.069Z,1760
2018-01-15T13:10:57.323Z,1780
2018-01-15T13:11:57.306Z,1792
2018-01-15T13:12:57.563Z,1868
2018-01-15T13:13:57.263Z,1764
2018-01-15T13:14:57.283Z,1856
2018-01-15T13:15:57.238Z,1740
2018-01-15T13:16:57.213Z,1732
2018-01-15T13:17:57.468Z,1720
2018-01-15T13:18:57.461Z,1704
2018-01-15T13:19:57.435Z,1700
2018-01-15T13:20:57.164Z,1700
2018-01-15T13:21:57.427Z,1696
2018-01-15T13:22:57.106Z,1708
2018-01-15T13:23:57.093Z,1696
2018-01-15T13:24:57.350Z,1684
2018-01-15T13:25:57.081Z,1676
2018-01-15T13:26:57.041Z,1696
2018-01-15T13:27:57.042Z,1832
2018-01-15T13:28:57.004Z,1844
2018-01-15T13:29:56.712Z,1840
2018-01-15T13:30:56.968Z,1840
2018-01-15T13:31:56.949Z,1820
2018-01-15T13:32:56.940Z,1756
2018-01-15T13:33:56.670Z,1728
2018-01-15T13:34:57.166Z,1656
2018-01-15T13:35:56.604Z,1612
2018-01-15T13:36:57.143Z,1592
2018-01-15T13:37:57.041Z,1572
2018-01-15T13:38:56.552Z,1560
2018-01-15T13:39:56.584Z,1556
2018-01-15T13:40:56.805Z,1580
2018-01-15T13:41:56.513Z,1596
2018-01-15T13:42:56.747Z,1600
2018-01-15T13:43:56.732Z,1596
2018-01-15T13:44:56.441Z,1572
2018-01-15T13:45:56.692Z,1568
2018-01-15T13:46:56.406Z,1560
2018-01-15T13:47:57.207Z,1552
2018-01-15T13:48:56.371Z,1536
2018-01-15T13:49:57.164Z,1528
2018-01-15T13:50:56.876Z,1520
2018-01-15T13:51:56.589Z,1508
2018-01-15T13:52:56.311Z,1520
2018-01-15T13:53:56.277Z,1568
2018-01-15T13:54:56.817Z,1608
2018-01-15T13:55:56.249Z,1708
2018-01-15T13:56:56.770Z,1800
2018-01-15T13:57:56.518Z,1884
2018-01-15T13:58:56.458Z,1836
2018-01-15T13:59:56.711Z,1836
2018-01-15T14:00:56.156Z,1816